Time;durP1;ratioP1;P1;durP2;ratioP2;P2;SDS_P1;SDS_P2;PMS_P1;PMS_P2;Temp;Humidity;BMP_temperature;BMP_pressure;BME280_temperature;BME280_humidity;BME280_pressure;Samples;Min_cycle;Max_cycle;Signal;HPM_P1;HPM_P2
2022/05/08 00:01:50;;;;;;;21.42;7.65;;;9.00;99.90;;;;;;4938639;28;20050;-87
2022/05/08 00:04:16;;;;;;;16.13;6.85;;;9.00;99.90;;;;;;4962056;28;20049;-87
2022/05/08 00:06:41;;;;;;;15.07;3.65;;;8.90;99.90;;;;;;4955120;28;20050;-87
2022/05/08 00:09:07;;;;;;;21.50;6.70;;;8.80;99.90;;;;;;4945815;28;20046;-87
2022/05/08 00:11:33;;;;;;;23.02;7.28;;;8.80;99.90;;;;;;4941009;28;20053;-87
2022/05/08 00:13:58;;;;;;;21.52;6.82;;;8.70;99.90;;;;;;4946135;28;20102;-88
2022/05/08 00:16:24;;;;;;;23.23;6.57;;;8.70;99.90;;;;;;4946644;28;20043;-87
2022/05/08 00:18:50;;;;;;;20.25;6.63;;;8.70;99.90;;;;;;4948426;28;20547;-88
2022/05/08 00:21:15;;;;;;;17.40;6.22;;;8.70;99.90;;;;;;4948605;28;20046;-87
2022/05/08 00:23:41;;;;;;;20.45;6.32;;;8.70;99.90;;;;;;4942576;28;20537;-88
2022/05/08 00:26:08;;;;;;;17.67;4.10;;;8.60;99.90;;;;;;4949472;28;20114;-87
2022/05/08 00:28:38;;;;;;;20.98;5.95;;;8.50;99.90;;;;;;4920838;28;20047;-89
2022/05/08 00:31:04;;;;;;;16.10;3.87;;;8.50;99.90;;;;;;4943281;28;20049;-88
2022/05/08 00:33:31;;;;;;;21.38;6.43;;;8.40;99.90;;;;;;4942201;28;20054;-87
2022/05/08 00:35:57;;;;;;;22.23;6.43;;;8.40;99.90;;;;;;4956785;28;20042;-87
2022/05/08 00:38:22;;;;;;;21.85;6.70;;;8.40;99.90;;;;;;4941159;28;20400;-88
2022/05/08 00:40:48;;;;;;;18.95;6.18;;;8.40;99.90;;;;;;4948202;28;20086;-87
2022/05/08 00:43:32;;;;;;;21.85;6.97;;;8.40;99.90;;;;;;4961181;28;20047;-87
2022/05/08 00:45:59;;;;;;;17.63;6.70;;;8.40;99.90;;;;;;4963914;28;20043;-88
2022/05/08 00:48:25;;;;;;;14.35;3.67;;;8.30;99.90;;;;;;4960881;28;20051;-87
2022/05/08 00:50:52;;;;;;;22.70;6.20;;;8.20;99.90;;;;;;4940341;28;20046;-87
2022/05/08 00:53:18;;;;;;;18.52;6.47;;;8.20;99.90;;;;;;4969030;28;20043;-88
2022/05/08 00:55:45;;;;;;;23.08;6.50;;;8.20;99.90;;;;;;4943689;28;20499;-87
2022/05/08 00:58:11;;;;;;;21.83;6.60;;;8.20;99.90;;;;;;4952176;28;20051;-87
2022/05/08 01:00:37;;;;;;;19.25;6.50;;;8.20;99.90;;;;;;4942881;28;20112;-87
2022/05/08 01:03:03;;;;;;;18.35;6.15;;;8.20;99.90;;;;;;4962434;28;20046;-87
2022/05/08 01:05:29;;;;;;;14.57;3.90;;;8.20;99.90;;;;;;4952681;28;20045;-86
2022/05/08 01:07:55;;;;;;;17.55;4.10;;;8.10;99.90;;;;;;4946841;28;20407;-88
2022/05/08 01:10:21;;;;;;;17.00;4.25;;;8.00;99.90;;;;;;4961496;28;20041;-88
2022/05/08 01:12:46;;;;;;;18.85;7.10;;;7.90;99.90;;;;;;4911959;28;20047;-88
2022/05/08 01:15:18;;;;;;;25.02;7.18;;;7.90;99.90;;;;;;4951574;28;20504;-87
2022/05/08 01:17:44;;;;;;;18.13;6.22;;;8.00;99.90;;;;;;4947303;28;20428;-87
2022/05/08 01:20:10;;;;;;;17.52;4.47;;;8.00;99.90;;;;;;4948957;28;20090;-88
2022/05/08 01:22:36;;;;;;;15.85;3.30;;;7.90;99.90;;;;;;4956879;28;20053;-87
2022/05/08 01:25:02;;;;;;;20.33;6.57;;;7.80;99.90;;;;;;4942502;28;20047;-86
2022/05/08 01:27:28;;;;;;;14.98;4.50;;;7.90;99.90;;;;;;4932708;28;20047;-87
2022/05/08 01:29:54;;;;;;;18.38;6.70;;;7.80;99.90;;;;;;4948221;28;20065;-87
2022/05/08 01:32:20;;;;;;;21.80;6.10;;;7.80;99.90;;;;;;4944464;28;20997;-88
2022/05/08 01:34:45;;;;;;;15.10;4.50;;;7.80;99.90;;;;;;4941078;29;20047;-88
2022/05/08 01:37:11;;;;;;;18.88;6.60;;;7.80;99.90;;;;;;4953771;28;20046;-87
2022/05/08 01:39:36;;;;;;;16.65;6.38;;;7.80;99.90;;;;;;4969487;28;20165;-86
2022/05/08 01:42:04;;;;;;;23.60;7.10;;;7.80;99.90;;;;;;4960140;28;20058;-88
2022/05/08 01:44:30;;;;;;;14.15;4.50;;;7.80;99.90;;;;;;4948703;28;20098;-86
2022/05/08 01:49:40;;;;;;;20.35;7.82;;;7.60;99.90;;;;;;4961688;28;20047;-87
2022/05/08 01:52:07;;;;;;;14.73;4.00;;;7.70;99.90;;;;;;4939047;28;20051;-88
2022/05/08 01:54:32;;;;;;;16.83;3.95;;;7.60;99.90;;;;;;4961521;28;20043;-88
2022/05/08 01:56:58;;;;;;;15.57;5.15;;;7.50;99.90;;;;;;4966525;28;20550;-87
2022/05/08 01:59:24;;;;;;;17.00;5.38;;;7.50;99.90;;;;;;4962535;28;20870;-88
2022/05/08 02:01:50;;;;;;;16.63;4.38;;;7.50;99.90;;;;;;4931539;28;20476;-88
2022/05/08 02:04:15;;;;;;;20.20;6.82;;;7.40;99.90;;;;;;4933230;28;20051;-88
2022/05/08 02:06:42;;;;;;;18.17;5.30;;;7.50;99.90;;;;;;4937845;28;20039;-88
2022/05/08 02:09:08;;;;;;;18.23;7.07;;;7.40;99.90;;;;;;4944056;28;20057;-88
2022/05/08 02:11:33;;;;;;;17.73;4.68;;;7.50;99.90;;;;;;4961121;28;20047;-88
2022/05/08 02:13:59;;;;;;;16.23;3.78;;;7.40;99.90;;;;;;4955093;28;20509;-88
2022/05/08 02:16:25;;;;;;;17.00;6.80;;;7.30;99.90;;;;;;4938647;28;20480;-88
2022/05/08 02:18:51;;;;;;;21.35;7.50;;;7.40;99.90;;;;;;4937556;28;20046;-88
2022/05/08 02:21:17;;;;;;;14.63;4.07;;;7.40;99.90;;;;;;4957554;28;20062;-88
2022/05/08 02:23:43;;;;;;;20.50;5.13;;;7.30;99.90;;;;;;4958285;28;20034;-88
2022/05/08 02:26:08;;;;;;;17.83;6.47;;;7.30;99.90;;;;;;4936399;28;20078;-88
2022/05/08 02:28:34;;;;;;;21.23;7.05;;;7.30;99.90;;;;;;4933349;28;20093;-89
2022/05/08 02:31:00;;;;;;;15.13;4.90;;;7.40;99.90;;;;;;4952175;28;20429;-89
2022/05/08 02:33:25;;;;;;;19.75;7.40;;;7.20;99.90;;;;;;4947655;28;20761;-89
2022/05/08 02:35:51;;;;;;;18.63;6.55;;;7.30;99.90;;;;;;4950724;28;20098;-88
2022/05/08 02:38:17;;;;;;;10.38;3.80;;;7.30;99.90;;;;;;4946224;28;20046;-89
2022/05/08 02:40:42;;;;;;;17.52;7.35;;;7.20;99.90;;;;;;4944912;28;20050;-89
2022/05/08 02:43:08;;;;;;;12.00;3.33;;;7.20;99.90;;;;;;4949847;28;20419;-89
2022/05/08 02:45:34;;;;;;;15.50;4.60;;;7.10;99.90;;;;;;4942075;28;20078;-88
2022/05/08 02:47:59;;;;;;;20.00;6.75;;;7.00;99.90;;;;;;4967178;28;20054;-89
2022/05/08 02:50:26;;;;;;;18.30;7.00;;;7.10;99.90;;;;;;4944775;28;20039;-88
2022/05/08 02:52:52;;;;;;;17.55;7.18;;;7.00;99.90;;;;;;4937238;28;20511;-89
2022/05/08 03:00:47;;;;;;;15.32;3.65;;;6.80;99.90;;;;;;4944373;28;20051;-89
2022/05/08 03:03:14;;;;;;;16.17;4.68;;;6.70;99.90;;;;;;4947220;28;20070;-89
2022/05/08 03:05:45;;;;;;;15.15;4.20;;;6.70;99.90;;;;;;4944081;28;20047;-89
2022/05/08 03:08:11;;;;;;;12.23;4.05;;;6.70;99.90;;;;;;4958292;28;20059;-89
2022/05/08 03:13:21;;;;;;;14.65;4.03;;;6.70;99.90;;;;;;4961084;28;20047;-89
2022/05/08 03:15:47;;;;;;;15.05;4.25;;;6.70;99.90;;;;;;4936088;28;20125;-89
2022/05/08 03:18:14;;;;;;;12.75;3.38;;;6.60;99.90;;;;;;4946585;28;20073;-89
2022/05/08 03:20:40;;;;;;;13.07;4.88;;;6.50;99.90;;;;;;4931361;28;20565;-89
2022/05/08 03:23:06;;;;;;;16.02;3.53;;;6.50;99.90;;;;;;4945144;28;20047;-89
2022/05/08 03:25:31;;;;;;;22.88;7.20;;;6.50;99.90;;;;;;4942062;28;20075;-88
2022/05/08 03:27:57;;;;;;;20.52;5.00;;;6.50;99.90;;;;;;4959755;28;20085;-89
2022/05/08 03:30:25;;;;;;;11.63;3.58;;;6.50;99.90;;;;;;4946863;28;20461;-89
2022/05/08 03:32:51;;;;;;;12.15;3.28;;;6.40;99.90;;;;;;4953651;28;20482;-89
2022/05/08 03:35:16;;;;;;;11.93;4.07;;;6.30;99.90;;;;;;4949582;28;20039;-89
2022/05/08 03:37:42;;;;;;;13.98;4.13;;;6.30;99.90;;;;;;4915259;28;20453;-88
2022/05/08 03:40:08;;;;;;;14.35;5.90;;;6.30;99.90;;;;;;4946597;28;20046;-89
2022/05/08 03:42:34;;;;;;;16.90;6.70;;;6.40;99.90;;;;;;4922511;28;20055;-90
2022/05/08 03:44:59;;;;;;;12.50;4.07;;;6.40;99.90;;;;;;4939849;29;20043;-89
2022/05/08 03:47:25;;;;;;;14.85;3.60;;;6.30;99.90;;;;;;4919433;28;20066;-89
2022/05/08 03:49:50;;;;;;;11.93;3.35;;;6.30;99.90;;;;;;4949824;28;20085;-89
2022/05/08 03:52:16;;;;;;;15.77;3.70;;;6.20;99.90;;;;;;4943551;28;20439;-89
2022/05/08 03:54:41;;;;;;;14.65;4.43;;;6.20;99.90;;;;;;4946135;28;20051;-88
2022/05/08 03:57:07;;;;;;;13.48;4.40;;;6.20;99.90;;;;;;4944224;28;20043;-89
2022/05/08 03:59:32;;;;;;;10.55;3.45;;;6.20;99.90;;;;;;4952106;28;20053;-89
2022/05/08 04:01:58;;;;;;;14.48;4.07;;;6.10;99.90;;;;;;4919392;28;20039;-88
2022/05/08 04:04:24;;;;;;;13.38;4.22;;;6.10;99.90;;;;;;4932104;28;20047;-88
2022/05/08 04:06:49;;;;;;;12.13;4.22;;;6.10;99.90;;;;;;4947503;28;20564;-89
2022/05/08 04:09:16;;;;;;;10.90;4.13;;;6.00;99.90;;;;;;4959708;28;20070;-88
2022/05/08 04:11:41;;;;;;;16.33;4.65;;;6.00;99.90;;;;;;4935641;28;20077;-88
2022/05/08 04:14:07;;;;;;;16.83;4.20;;;6.10;99.90;;;;;;4964421;28;20081;-88
2022/05/08 04:16:33;;;;;;;13.65;3.72;;;6.10;99.90;;;;;;4965778;28;20045;-88
2022/05/08 04:18:58;;;;;;;15.55;3.72;;;6.10;99.90;;;;;;4925330;28;20136;-88
2022/05/08 04:21:24;;;;;;;18.88;4.75;;;6.20;99.90;;;;;;4960920;28;20083;-89
2022/05/08 04:26:34;;;;;;;15.02;4.18;;;6.30;99.90;;;;;;4956825;28;20054;-88
2022/05/08 04:29:01;;;;;;;14.43;3.90;;;6.30;99.90;;;;;;4960687;28;20043;-88
2022/05/08 04:31:26;;;;;;;16.65;4.63;;;6.30;99.90;;;;;;4960376;28;20043;-88
2022/05/08 04:33:52;;;;;;;12.65;4.90;;;6.40;99.90;;;;;;4953343;28;20055;-88
2022/05/08 04:36:18;;;;;;;16.48;4.35;;;6.40;99.90;;;;;;4933524;28;20488;-88
2022/05/08 04:38:45;;;;;;;15.13;4.80;;;6.50;99.90;;;;;;4962840;28;20039;-88
2022/05/08 04:41:10;;;;;;;13.15;4.32;;;6.60;99.90;;;;;;4945428;28;20052;-87
2022/05/08 04:43:36;;;;;;;11.70;4.53;;;6.60;99.90;;;;;;4947854;28;20043;-89
2022/05/08 04:46:02;;;;;;;11.13;4.35;;;6.70;99.90;;;;;;4965058;28;20054;-87
2022/05/08 04:48:28;;;;;;;14.23;5.15;;;6.80;99.90;;;;;;4950450;29;20055;-88
2022/05/08 04:50:53;;;;;;;15.43;4.50;;;6.80;99.90;;;;;;4933549;28;20038;-88
2022/05/08 04:53:19;;;;;;;17.90;7.00;;;6.90;99.90;;;;;;4942460;28;20039;-88
2022/05/08 04:55:45;;;;;;;15.77;5.20;;;7.00;99.90;;;;;;4939216;28;20069;-88
2022/05/08 04:58:10;;;;;;;13.90;4.93;;;7.10;99.90;;;;;;4955799;28;20055;-89
2022/05/08 05:00:37;;;;;;;11.50;3.50;;;7.10;99.90;;;;;;4938980;28;20070;-87
2022/05/08 05:03:02;;;;;;;15.48;4.22;;;7.20;99.90;;;;;;4923109;28;20074;-88
2022/05/08 05:05:28;;;;;;;18.15;6.43;;;7.30;99.90;;;;;;4966305;28;20035;-88
2022/05/08 05:07:54;;;;;;;19.15;7.07;;;7.40;99.90;;;;;;4945775;28;20444;-88
2022/05/08 05:10:19;;;;;;;16.50;5.30;;;7.50;99.90;;;;;;4966716;28;20043;-89
2022/05/08 05:12:45;;;;;;;14.98;5.15;;;7.60;99.90;;;;;;4949989;28;20129;-88
2022/05/08 05:15:11;;;;;;;15.68;4.70;;;7.60;99.90;;;;;;4939894;28;20039;-90
2022/05/08 05:17:37;;;;;;;17.35;6.15;;;7.70;99.90;;;;;;4945313;28;20046;-90
2022/05/08 05:20:03;;;;;;;16.90;6.60;;;7.70;99.90;;;;;;4944535;28;20480;-90
2022/05/08 05:22:29;;;;;;;13.20;6.22;;;7.80;99.90;;;;;;4933118;28;20039;-88
2022/05/08 05:24:58;;;;;;;11.27;3.72;;;7.90;99.90;;;;;;4968453;28;20459;-89
2022/05/08 05:27:24;;;;;;;15.73;5.85;;;7.90;99.90;;;;;;4933310;28;20062;-89
2022/05/08 05:29:50;;;;;;;15.70;6.18;;;8.00;99.90;;;;;;4959933;28;20456;-91
2022/05/08 05:32:16;;;;;;;15.23;6.55;;;8.00;99.90;;;;;;4948699;28;20069;-95
2022/05/08 05:34:41;;;;;;;13.85;4.55;;;8.10;99.90;;;;;;4950627;28;20089;-93
2022/05/08 05:37:10;;;;;;;15.57;4.55;;;8.10;99.90;;;;;;4967760;28;20044;-95
2022/05/08 05:39:36;;;;;;;12.82;3.90;;;8.30;99.90;;;;;;4952623;28;20055;-93
2022/05/08 05:42:02;;;;;;;12.18;5.20;;;8.30;99.90;;;;;;4942540;29;20062;-92
2022/05/08 05:44:28;;;;;;;13.00;5.05;;;8.40;99.90;;;;;;4929806;28;20098;-93
2022/05/08 05:49:38;;;;;;;11.27;5.25;;;8.60;99.90;;;;;;4951000;28;20106;-92
2022/05/08 05:52:06;;;;;;;13.02;5.00;;;8.80;99.90;;;;;;4942376;28;20047;-92
2022/05/08 05:54:32;;;;;;;13.85;4.78;;;8.90;99.90;;;;;;4945459;28;20130;-91
2022/05/08 05:56:58;;;;;;;13.73;4.13;;;9.00;99.90;;;;;;4933973;28;20157;-89
2022/05/08 05:59:23;;;;;;;9.98;4.03;;;9.00;99.90;;;;;;4946670;28;20034;-89
2022/05/08 06:01:49;;;;;;;14.05;4.93;;;9.10;99.90;;;;;;4934115;28;20047;-94
2022/05/08 06:04:14;;;;;;;13.57;4.80;;;9.30;99.90;;;;;;4951941;28;20049;-91
2022/05/08 06:06:40;;;;;;;10.13;4.40;;;9.30;99.90;;;;;;4947901;28;20097;-86
2022/05/08 06:09:07;;;;;;;13.05;4.50;;;9.50;99.90;;;;;;4934148;28;20514;-92
2022/05/08 06:11:32;;;;;;;11.60;4.25;;;9.60;99.90;;;;;;4939632;28;20055;-93
2022/05/08 06:13:58;;;;;;;11.70;4.20;;;9.60;99.90;;;;;;4937188;28;20090;-89
2022/05/08 06:16:23;;;;;;;10.32;4.55;;;9.60;99.90;;;;;;4937864;28;20090;-90
2022/05/08 06:18:49;;;;;;;13.90;3.95;;;9.80;99.90;;;;;;4951465;28;20154;-88
2022/05/08 06:21:15;;;;;;;10.77;4.60;;;9.90;99.90;;;;;;4925314;29;20047;-90
2022/05/08 06:23:40;;;;;;;12.38;4.70;;;9.90;99.90;;;;;;4954042;28;20106;-88
2022/05/08 06:26:06;;;;;;;13.27;4.40;;;10.00;99.90;;;;;;4950531;28;20038;-91
2022/05/08 06:28:32;;;;;;;9.98;3.83;;;10.20;99.90;;;;;;4946625;28;20047;-91
2022/05/08 06:30:58;;;;;;;13.43;4.35;;;10.20;99.90;;;;;;4945365;28;20045;-89
2022/05/08 06:33:24;;;;;;;10.27;3.55;;;10.20;99.90;;;;;;4938005;28;20411;-92
2022/05/08 06:35:49;;;;;;;9.55;3.47;;;10.30;99.90;;;;;;4940917;28;20046;-92
2022/05/08 06:38:16;;;;;;;13.55;3.88;;;10.40;99.90;;;;;;4966376;28;20046;-90
2022/05/08 06:40:43;;;;;;;12.95;3.53;;;10.40;99.90;;;;;;4942145;28;20082;-90
2022/05/08 06:43:09;;;;;;;10.77;3.08;;;10.50;99.90;;;;;;4963473;28;20118;-89
2022/05/08 06:45:35;;;;;;;10.73;2.60;;;10.70;99.90;;;;;;4932842;28;20381;-90
2022/05/08 06:48:01;;;;;;;10.25;2.70;;;10.70;99.90;;;;;;4948925;28;20049;-90
2022/05/08 06:50:29;;;;;;;13.05;2.80;;;10.90;99.90;;;;;;4958804;28;20047;-93
2022/05/08 06:52:55;;;;;;;10.68;2.97;;;11.10;99.90;;;;;;4946288;28;20630;-91
2022/05/08 06:55:21;;;;;;;10.77;2.80;;;11.10;99.90;;;;;;4944619;28;20048;-89
2022/05/08 06:57:47;;;;;;;11.52;3.38;;;11.30;99.90;;;;;;4944850;28;20043;-94
2022/05/08 07:02:57;;;;;;;10.35;2.20;;;11.50;99.90;;;;;;4943616;28;20069;-91
2022/05/08 07:05:23;;;;;;;9.07;2.08;;;11.50;99.90;;;;;;4962546;28;20662;-93
2022/05/08 07:07:49;;;;;;;10.23;2.15;;;11.30;99.90;;;;;;4948223;28;20054;-93
2022/05/08 07:10:14;;;;;;;10.57;2.50;;;11.30;99.90;;;;;;4948228;28;20057;-92
2022/05/08 07:12:40;;;;;;;11.23;2.40;;;11.20;99.90;;;;;;4963789;28;20465;-90
2022/05/08 07:15:09;;;;;;;10.00;2.40;;;11.10;99.90;;;;;;4966387;28;20046;-93
2022/05/08 07:17:35;;;;;;;10.27;2.55;;;11.10;99.90;;;;;;4966342;28;20058;-94
2022/05/08 07:20:03;;;;;;;9.40;2.45;;;11.30;99.90;;;;;;4950725;28;20047;-91
2022/05/08 07:22:30;;;;;;;10.52;2.40;;;11.30;99.90;;;;;;4938854;28;20067;-94
2022/05/08 07:24:55;;;;;;;7.95;2.47;;;11.40;99.90;;;;;;4948451;28;20049;-90
2022/05/08 07:27:21;;;;;;;9.73;2.33;;;11.50;99.90;;;;;;4965059;28;20054;-93
2022/05/08 07:29:46;;;;;;;10.40;2.47;;;11.70;99.90;;;;;;4928590;28;20043;-93
2022/05/08 07:32:12;;;;;;;9.10;2.67;;;11.70;99.90;;;;;;4966683;28;20035;-87
2022/05/08 07:37:22;;;;;;;10.57;2.53;;;12.00;99.90;;;;;;4942816;28;20054;-92
2022/05/08 07:39:48;;;;;;;10.07;2.10;;;11.90;99.90;;;;;;4973636;28;20042;-89
2022/05/08 07:42:13;;;;;;;6.55;2.20;;;11.90;99.90;;;;;;4971533;28;20050;-92
2022/05/08 07:44:39;;;;;;;8.88;2.40;;;11.80;99.90;;;;;;4953894;28;20057;-89
2022/05/08 07:47:05;;;;;;;11.23;2.38;;;11.80;99.90;;;;;;4948866;28;20070;-90
2022/05/08 07:49:31;;;;;;;10.95;2.33;;;11.70;99.90;;;;;;4924983;28;20350;-88
2022/05/08 07:51:56;;;;;;;9.43;2.50;;;11.80;99.90;;;;;;4952783;28;20451;-92
2022/05/08 07:54:22;;;;;;;7.93;1.98;;;11.70;99.90;;;;;;4924240;28;20548;-90
2022/05/08 07:56:47;;;;;;;9.88;2.33;;;11.70;99.90;;;;;;4932388;28;20098;-90
2022/05/08 07:59:13;;;;;;;8.35;2.08;;;11.70;99.90;;;;;;4962983;28;20042;-91
2022/05/08 08:01:39;;;;;;;9.98;2.42;;;11.60;99.90;;;;;;4944946;28;20126;-90
2022/05/08 08:04:10;;;;;;;13.20;2.53;;;11.50;99.90;;;;;;4947962;28;20055;-95
2022/05/08 08:06:36;;;;;;;9.20;2.17;;;11.40;99.90;;;;;;4927896;28;20058;-93
2022/05/08 08:09:02;;;;;;;11.52;2.65;;;11.40;99.90;;;;;;4952447;28;20050;-90
2022/05/08 08:11:27;;;;;;;9.20;2.30;;;11.40;99.90;;;;;;4937963;28;20047;-91
2022/05/08 08:13:55;;;;;;;10.95;2.42;;;11.30;99.90;;;;;;4955575;28;20050;-89
2022/05/08 08:16:21;;;;;;;11.18;2.83;;;11.30;99.90;;;;;;4953571;28;20081;-91
2022/05/08 08:18:48;;;;;;;11.60;2.72;;;11.30;99.90;;;;;;4945277;29;20051;-93
2022/05/08 08:21:16;;;;;;;10.13;2.70;;;11.30;99.90;;;;;;4921154;29;20066;-91
2022/05/08 08:23:43;;;;;;;11.05;2.28;;;11.40;99.90;;;;;;4934436;29;20044;-93
2022/05/08 08:26:10;;;;;;;11.23;2.65;;;11.50;99.90;;;;;;4927165;29;20038;-95
2022/05/08 08:28:36;;;;;;;9.48;2.40;;;11.60;99.90;;;;;;4951885;28;20043;-94
2022/05/08 08:31:02;;;;;;;10.77;2.60;;;11.60;99.90;;;;;;4938320;29;20051;-94
2022/05/08 08:33:31;;;;;;;9.43;2.42;;;11.70;99.90;;;;;;4935751;29;20047;-94
2022/05/08 08:35:56;;;;;;;11.15;2.40;;;11.70;99.90;;;;;;4954411;29;20556;-95
2022/05/08 08:38:22;;;;;;;9.80;2.47;;;11.70;99.90;;;;;;4932245;29;20397;-92
2022/05/08 08:40:50;;;;;;;9.60;2.40;;;11.80;99.90;;;;;;4954624;28;20145;-92
2022/05/08 08:43:17;;;;;;;9.55;2.65;;;11.80;99.90;;;;;;4942342;29;20228;-93
2022/05/08 08:48:29;;;;;;;9.60;3.25;;;11.90;99.90;;;;;;4954439;29;20062;-94
2022/05/08 08:50:56;;;;;;;10.35;2.83;;;12.10;99.90;;;;;;4953858;28;20059;-94
2022/05/08 08:53:23;;;;;;;9.93;2.60;;;12.20;99.90;;;;;;4955284;28;20395;-95
2022/05/08 08:55:49;;;;;;;7.90;2.47;;;12.30;99.90;;;;;;4940249;29;20142;-96
2022/05/08 08:58:19;;;;;;;9.75;2.63;;;12.30;99.90;;;;;;4921313;29;20059;-91
2022/05/08 09:00:49;;;;;;;10.52;2.97;;;12.20;99.90;;;;;;4935501;29;20047;-93
2022/05/08 09:03:27;;;;;;;10.55;2.42;;;12.30;99.90;;;;;;4941547;29;20055;-92
2022/05/08 09:06:02;;;;;;;9.25;2.42;;;12.30;99.90;;;;;;4945472;29;20055;-93
2022/05/08 09:08:35;;;;;;;8.50;2.17;;;12.30;99.90;;;;;;4959683;29;20072;-91
2022/05/08 09:11:01;;;;;;;8.15;2.78;;;12.50;99.90;;;;;;4938000;29;20058;-93
2022/05/08 09:13:28;;;;;;;9.25;2.90;;;12.60;99.90;;;;;;4951453;29;20055;-93
2022/05/08 09:16:06;;;;;;;9.85;3.08;;;12.70;99.90;;;;;;4955362;28;20106;-92
2022/05/08 09:18:46;;;;;;;10.32;2.55;;;12.80;99.90;;;;;;4950629;29;20059;-92
2022/05/08 09:24:12;;;;;;;11.32;2.83;;;12.90;99.90;;;;;;4936848;29;20059;-90
2022/05/08 09:26:38;;;;;;;10.88;3.13;;;12.90;99.90;;;;;;4951428;29;20058;-94
2022/05/08 09:29:04;;;;;;;11.70;3.00;;;13.00;99.90;;;;;;4944272;29;20488;-96
2022/05/08 09:31:42;;;;;;;14.70;3.00;;;13.10;99.90;;;;;;4953774;29;20049;-94
2022/05/08 09:34:08;;;;;;;9.90;2.80;;;13.10;99.90;;;;;;4946553;29;20047;-91
2022/05/08 09:36:34;;;;;;;14.57;2.70;;;13.10;99.90;;;;;;4948660;28;20047;-93
2022/05/08 09:39:03;;;;;;;8.70;2.60;;;13.20;99.90;;;;;;4942801;29;20054;-95
2022/05/08 09:41:30;;;;;;;11.88;2.63;;;13.30;99.90;;;;;;4926935;29;20076;-93
2022/05/08 09:44:09;;;;;;;7.80;2.25;;;13.30;99.90;;;;;;4948567;29;20044;-95
2022/05/08 09:46:44;;;;;;;11.27;2.67;;;13.30;99.90;;;;;;4953895;29;20393;-94
2022/05/08 09:49:31;;;;;;;11.48;2.72;;;13.30;99.90;;;;;;4958796;29;20038;-92
2022/05/08 09:51:58;;;;;;;14.13;3.47;;;13.30;99.90;;;;;;4945660;29;20093;-94
2022/05/08 09:54:26;;;;;;;7.90;3.08;;;13.40;99.90;;;;;;4945535;29;20547;-94
2022/05/08 09:56:51;;;;;;;10.00;2.63;;;13.50;99.90;;;;;;4951326;29;20056;-95
2022/05/08 09:59:19;;;;;;;8.80;3.00;;;13.50;99.90;;;;;;4954842;29;20118;-94
2022/05/08 10:01:45;;;;;;;9.15;2.47;;;13.50;99.90;;;;;;4937835;29;20058;-91
2022/05/08 10:04:11;;;;;;;9.05;2.50;;;13.60;99.90;;;;;;4954650;29;20697;-95
2022/05/08 10:06:38;;;;;;;8.93;2.70;;;13.60;99.90;;;;;;4947602;29;20048;-94
2022/05/08 10:14:45;;;;;;;7.28;2.20;;;13.70;99.90;;;;;;4940436;29;20048;-94
2022/05/08 10:17:14;;;;;;;8.77;2.40;;;13.70;99.90;;;;;;4943214;29;20078;-95
2022/05/08 10:19:40;;;;;;;9.63;2.70;;;13.70;99.90;;;;;;4926250;28;20059;-94
2022/05/08 10:22:06;;;;;;;9.70;2.50;;;13.80;99.90;;;;;;4930079;29;20036;-93
2022/05/08 10:24:53;;;;;;;13.27;3.35;;;13.90;99.90;;;;;;4935479;29;20087;-95
2022/05/08 10:27:25;;;;;;;9.88;3.33;;;13.90;99.90;;;;;;4932694;29;20054;-93
2022/05/08 10:29:50;;;;;;;8.63;2.40;;;14.00;99.90;;;;;;4939702;29;20047;-94
2022/05/08 10:32:30;;;;;;;10.30;2.67;;;14.00;99.90;;;;;;4913539;29;20446;-93
2022/05/08 10:35:16;;;;;;;11.30;2.70;;;14.00;99.90;;;;;;4934343;29;20052;-91
2022/05/08 10:37:42;;;;;;;9.50;3.00;;;14.00;99.90;;;;;;4923361;29;20059;-96
2022/05/08 10:40:23;;;;;;;8.77;2.38;;;14.10;99.90;;;;;;5029933;23;20058;-93
2022/05/08 10:42:50;;;;;;;10.65;2.70;;;14.00;99.90;;;;;;4948707;29;20475;-95
2022/05/08 10:45:34;;;;;;;8.40;2.55;;;14.10;99.90;;;;;;4955485;29;20031;-94
2022/05/08 10:48:12;;;;;;;9.88;2.60;;;14.20;99.90;;;;;;4948853;29;20054;-94
2022/05/08 10:50:46;;;;;;;9.93;2.88;;;14.20;99.90;;;;;;4947417;29;20052;-94
2022/05/08 10:53:32;;;;;;;9.48;2.60;;;14.20;99.90;;;;;;4912441;29;21001;-93
2022/05/08 10:56:01;;;;;;;9.68;2.58;;;14.20;99.90;;;;;;4930970;29;20044;-91
2022/05/08 10:58:31;;;;;;;14.32;3.05;;;14.30;99.90;;;;;;4933115;29;20059;-93
2022/05/08 11:01:09;;;;;;;8.43;2.70;;;14.40;99.90;;;;;;4928580;29;20056;-96
2022/05/08 11:03:35;;;;;;;8.40;2.40;;;14.30;99.90;;;;;;4936253;29;20055;-93
2022/05/08 11:06:04;;;;;;;10.98;2.65;;;14.40;99.90;;;;;;4929968;29;20043;-94
2022/05/08 11:08:32;;;;;;;11.48;2.55;;;14.50;99.90;;;;;;4939734;29;20102;-94
2022/05/08 11:11:10;;;;;;;7.00;2.30;;;14.50;99.90;;;;;;4937506;29;20044;-94
2022/05/08 11:13:49;;;;;;;8.82;2.45;;;14.60;98.30;;;;;;4936498;29;20127;-94
2022/05/08 11:16:36;;;;;;;10.05;3.63;;;14.60;98.70;;;;;;4938426;29;20111;-93
2022/05/08 11:19:04;;;;;;;8.82;2.40;;;14.70;97.80;;;;;;4928261;29;20103;-94
2022/05/08 11:21:30;;;;;;;8.88;2.20;;;14.60;97.80;;;;;;4935797;29;20062;-94
2022/05/08 11:23:56;;;;;;;9.60;2.55;;;14.70;98.50;;;;;;4911745;29;20042;-95
2022/05/08 11:26:31;;;;;;;10.57;2.35;;;14.80;98.70;;;;;;4933921;29;20055;-94
2022/05/08 11:28:58;;;;;;;10.20;2.22;;;14.90;97.70;;;;;;4938553;29;20401;-94
2022/05/08 11:31:28;;;;;;;8.77;2.55;;;14.90;98.60;;;;;;4919012;29;20533;-94
2022/05/08 11:36:40;;;;;;;10.82;2.88;;;15.00;98.10;;;;;;4934002;29;20070;-91
2022/05/08 11:39:13;;;;;;;10.23;2.35;;;15.00;98.40;;;;;;4942084;29;20060;-95
2022/05/08 11:41:42;;;;;;;10.20;2.65;;;15.00;98.70;;;;;;4948140;29;20079;-93
2022/05/08 11:44:13;;;;;;;8.98;2.60;;;15.10;98.50;;;;;;4943346;29;20047;-94
2022/05/08 11:46:44;;;;;;;11.80;2.88;;;15.10;97.80;;;;;;4944146;29;20130;-95
2022/05/08 11:49:14;;;;;;;9.05;2.30;;;15.00;96.60;;;;;;4954138;29;20102;-95
2022/05/08 11:51:42;;;;;;;10.40;2.65;;;15.10;96.10;;;;;;4914947;29;20481;-94
2022/05/08 11:54:32;;;;;;;8.45;2.20;;;15.20;95.30;;;;;;4952341;29;20073;-95
2022/05/08 11:57:16;;;;;;;9.13;2.55;;;15.30;95.10;;;;;;4948402;29;20067;-95
2022/05/08 11:59:44;;;;;;;10.27;3.10;;;15.40;95.10;;;;;;4941674;29;20488;-92
2022/05/08 12:02:10;;;;;;;9.50;2.45;;;15.40;94.80;;;;;;4926707;29;20047;-93
2022/05/08 12:04:36;;;;;;;10.13;2.55;;;15.40;94.40;;;;;;4955376;29;20489;-95
2022/05/08 12:07:02;;;;;;;8.98;2.50;;;15.40;94.30;;;;;;4955454;29;20047;-95
2022/05/08 12:09:30;;;;;;;8.95;2.70;;;15.30;94.20;;;;;;4949261;29;20047;-93
2022/05/08 12:11:55;;;;;;;9.63;2.60;;;15.40;94.80;;;;;;4956044;29;20045;-92
2022/05/08 12:14:31;;;;;;;10.93;3.20;;;15.30;94.00;;;;;;4958056;29;20101;-93
2022/05/08 12:17:03;;;;;;;10.50;2.92;;;15.30;94.10;;;;;;4931761;29;20389;-95
2022/05/08 12:19:39;;;;;;;11.57;2.95;;;15.30;93.50;;;;;;4954730;29;20043;-89
2022/05/08 12:22:37;;;;;;;12.85;2.95;;;15.40;94.50;;;;;;4928985;29;20290;-93
2022/05/08 12:25:04;;;;;;;10.27;2.85;;;15.50;94.30;;;;;;4902192;29;20060;-95
2022/05/08 12:27:38;;;;;;;9.93;2.70;;;15.50;94.00;;;;;;4960212;28;20056;-95
2022/05/08 12:30:06;;;;;;;10.68;3.47;;;15.50;93.90;;;;;;4944210;29;20055;-90
2022/05/08 12:32:34;;;;;;;7.97;2.30;;;15.50;93.50;;;;;;4938879;29;20043;-93
2022/05/08 12:35:00;;;;;;;9.70;3.10;;;15.40;93.20;;;;;;4960859;28;20126;-90
2022/05/08 12:37:26;;;;;;;11.77;3.08;;;15.30;93.20;;;;;;4934445;29;20081;-96
2022/05/08 12:39:52;;;;;;;10.82;2.92;;;15.30;93.10;;;;;;4937516;29;20067;-94
2022/05/08 12:42:20;;;;;;;9.32;2.80;;;15.30;93.10;;;;;;4946852;29;20043;-96
2022/05/08 12:44:49;;;;;;;10.73;2.90;;;15.30;93.80;;;;;;4961011;29;20047;-93
2022/05/08 12:47:15;;;;;;;9.10;3.00;;;15.40;93.30;;;;;;4951195;29;20051;-94
2022/05/08 12:49:49;;;;;;;9.15;3.20;;;15.50;92.40;;;;;;4957368;29;20067;-95
2022/05/08 12:52:15;;;;;;;11.30;2.80;;;15.50;91.90;;;;;;4951710;29;20133;-92
2022/05/08 12:54:42;;;;;;;9.55;2.80;;;15.50;91.60;;;;;;4954274;29;20079;-93
2022/05/08 12:57:10;;;;;;;9.13;2.40;;;15.50;91.60;;;;;;4954115;29;20567;-95
2022/05/08 12:59:49;;;;;;;10.27;3.08;;;15.60;91.60;;;;;;4950660;29;20047;-95
2022/05/08 13:02:16;;;;;;;7.60;2.63;;;15.60;91.50;;;;;;4946618;29;20139;-94
2022/05/08 13:04:43;;;;;;;8.45;2.58;;;15.60;91.10;;;;;;4949263;28;20086;-96
2022/05/08 13:07:09;;;;;;;9.82;2.33;;;15.50;90.50;;;;;;4955551;29;20047;-93
2022/05/08 13:09:35;;;;;;;8.63;2.90;;;15.60;90.40;;;;;;4963274;29;20055;-94
2022/05/08 13:12:03;;;;;;;8.98;3.00;;;15.60;90.40;;;;;;4954094;29;20039;-94
2022/05/08 13:14:30;;;;;;;8.52;2.22;;;15.60;90.50;;;;;;4934529;29;20143;-92
2022/05/08 13:16:57;;;;;;;11.27;2.60;;;15.60;90.00;;;;;;4952995;29;20047;-94
2022/05/08 13:19:33;;;;;;;7.53;2.92;;;15.60;90.00;;;;;;4947309;29;20071;-95
2022/05/08 13:22:03;;;;;;;9.98;2.55;;;15.50;89.10;;;;;;4931579;29;20078;-94
2022/05/08 13:24:30;;;;;;;11.73;2.75;;;15.50;88.50;;;;;;4955769;28;20078;-94